createdAt,value
2017-09-19T00:02:12.301Z,1.00
2017-09-19T00:04:39.789Z,1.70
2017-09-19T00:07:07.329Z,0.80
2017-09-19T00:09:34.816Z,0.90
2017-09-19T00:12:02.304Z,0.80
2017-09-19T00:14:30.622Z,0.80
2017-09-19T00:16:58.117Z,0.90
2017-09-19T00:19:25.612Z,0.80
2017-09-19T00:21:53.137Z,0.63
2017-09-19T00:24:20.622Z,0.50
2017-09-19T00:26:48.920Z,0.80
2017-09-19T00:29:16.443Z,0.77
2017-09-19T00:31:44.701Z,0.60
2017-09-19T00:34:12.223Z,0.50
2017-09-19T00:36:39.713Z,0.70
2017-09-19T00:39:07.236Z,0.90
2017-09-19T00:41:34.738Z,0.60
2017-09-19T00:44:02.299Z,0.70
2017-09-19T00:46:30.562Z,0.70
2017-09-19T00:48:58.085Z,0.90
2017-09-19T00:51:25.586Z,0.67
2017-09-19T00:53:53.887Z,0.77
2017-09-19T00:56:21.379Z,0.97
2017-09-19T00:58:48.904Z,0.50
2017-09-19T01:01:16.433Z,0.77
2017-09-19T01:03:44.697Z,0.67
2017-09-19T01:06:12.191Z,0.60
2017-09-19T01:08:39.713Z,0.90
2017-09-19T01:11:07.214Z,0.77
2017-09-19T01:13:34.736Z,0.80
2017-09-19T01:16:02.999Z,0.70
2017-09-19T01:18:30.521Z,0.60
2017-09-19T01:20:58.014Z,0.53
2017-09-19T01:23:25.528Z,0.50
2017-09-19T01:25:53.042Z,0.60
2017-09-19T01:28:21.327Z,0.50
2017-09-19T01:30:49.600Z,0.60
2017-09-19T01:33:17.887Z,0.67
2017-09-19T01:35:45.388Z,0.60
2017-09-19T01:38:12.900Z,0.40
2017-09-19T01:40:40.416Z,0.50
2017-09-19T01:43:07.960Z,0.50
2017-09-19T01:45:35.453Z,0.50
2017-09-19T01:48:02.946Z,0.47
2017-09-19T01:50:30.472Z,0.60
2017-09-19T01:52:58.732Z,0.50
2017-09-19T01:55:26.987Z,0.40
2017-09-19T01:57:54.517Z,0.40
2017-09-19T02:00:22.032Z,0.43
2017-09-19T02:02:50.322Z,0.50
2017-09-19T02:05:17.816Z,0.50
2017-09-19T02:07:45.312Z,0.40
2017-09-19T02:10:13.605Z,0.50
2017-09-19T02:12:41.096Z,0.40
2017-09-19T02:15:08.619Z,0.40
2017-09-19T02:17:36.140Z,0.60
2017-09-19T02:20:03.640Z,0.50
2017-09-19T02:22:31.135Z,0.50
2017-09-19T02:24:58.662Z,0.47
2017-09-19T02:27:26.154Z,0.60
2017-09-19T02:29:53.676Z,0.70
2017-09-19T02:32:21.197Z,0.53
2017-09-19T02:34:49.499Z,0.53
2017-09-19T02:37:16.992Z,0.47
2017-09-19T02:39:44.485Z,0.70
2017-09-19T02:42:12.785Z,0.40
2017-09-19T02:44:40.278Z,0.57
2017-09-19T02:47:07.775Z,0.80
2017-09-19T02:49:36.073Z,0.67
2017-09-19T02:52:03.560Z,0.50
2017-09-19T02:54:31.094Z,0.50
2017-09-19T02:56:58.590Z,0.50
2017-09-19T02:59:26.092Z,0.50
2017-09-19T03:01:53.608Z,0.47
2017-09-19T03:04:21.100Z,0.50
2017-09-19T03:06:49.383Z,0.60
2017-09-19T03:09:17.625Z,0.60
2017-09-19T03:11:45.148Z,0.60
2017-09-19T03:14:12.648Z,0.50
2017-09-19T03:16:40.976Z,0.63
2017-09-19T03:19:08.464Z,0.70
2017-09-19T03:21:35.958Z,0.83
2017-09-19T03:24:03.512Z,0.60
2017-09-19T03:26:31.786Z,0.60
2017-09-19T03:29:00.045Z,0.60
2017-09-19T03:31:28.335Z,0.70
2017-09-19T03:33:56.640Z,0.60
2017-09-19T03:36:24.140Z,0.60
2017-09-19T03:38:51.686Z,0.67
2017-09-19T03:41:19.192Z,0.73
2017-09-19T03:43:46.681Z,0.80
2017-09-19T03:46:14.201Z,0.50
2017-09-19T03:48:41.748Z,0.50
2017-09-19T03:51:10.055Z,1.43
2017-09-19T03:53:37.556Z,1.90
2017-09-19T03:56:05.049Z,1.20
2017-09-19T03:58:32.576Z,1.17
2017-09-19T04:01:00.083Z,0.93
2017-09-19T04:03:27.586Z,1.10
2017-09-19T04:05:55.118Z,0.57
2017-09-19T04:08:22.613Z,0.70
2017-09-19T04:10:50.920Z,0.60
2017-09-19T04:13:18.418Z,0.80
2017-09-19T04:15:45.928Z,0.53
2017-09-19T04:18:13.461Z,0.40
2017-09-19T04:20:41.782Z,0.60
2017-09-19T04:23:09.275Z,0.80
2017-09-19T04:25:36.780Z,0.50
2017-09-19T04:28:04.320Z,0.60
2017-09-19T04:30:32.585Z,0.60
2017-09-19T04:33:00.855Z,0.50
2017-09-19T04:35:29.154Z,0.70
2017-09-19T04:37:56.690Z,0.67
2017-09-19T04:40:24.961Z,0.70
2017-09-19T04:42:53.256Z,0.77
2017-09-19T04:45:21.546Z,0.60
2017-09-19T04:47:49.057Z,0.50
2017-09-19T04:50:16.590Z,0.67
2017-09-19T04:52:44.094Z,0.70
2017-09-19T04:55:12.389Z,0.90
2017-09-19T04:57:39.897Z,0.77
2017-09-19T05:00:07.433Z,0.70
2017-09-19T05:02:34.936Z,0.60
2017-09-19T05:05:03.236Z,0.50
2017-09-19T05:07:30.734Z,0.60
2017-09-19T05:09:58.236Z,0.70
2017-09-19T05:12:25.789Z,0.60
2017-09-19T05:14:53.290Z,0.70
2017-09-19T05:17:20.789Z,0.50
2017-09-19T05:19:49.085Z,0.63
2017-09-19T05:22:16.595Z,0.50
2017-09-19T05:24:44.124Z,0.60
2017-09-19T05:27:11.630Z,0.40
2017-09-19T05:29:39.935Z,0.50
2017-09-19T05:32:07.438Z,0.40
2017-09-19T05:34:34.936Z,0.57
2017-09-19T05:37:03.241Z,0.50
2017-09-19T05:39:30.749Z,0.40
2017-09-19T05:41:58.248Z,0.40
2017-09-19T05:44:25.768Z,0.53
2017-09-19T05:46:54.112Z,0.53
2017-09-19T05:49:21.604Z,0.50
2017-09-19T05:51:49.871Z,0.50
2017-09-19T05:54:17.410Z,0.50
2017-09-19T05:56:44.913Z,0.50
2017-09-19T05:59:12.404Z,0.60
2017-09-19T06:01:39.943Z,0.60
2017-09-19T06:04:07.449Z,0.50
2017-09-19T06:06:34.937Z,0.50
2017-09-19T06:09:14.193Z,0.50
2017-09-19T06:11:41.708Z,0.40
2017-09-19T06:14:09.984Z,0.60
2017-09-19T06:16:38.237Z,0.60
2017-09-19T06:19:05.751Z,0.50
2017-09-19T06:21:33.254Z,0.70
2017-09-19T06:24:00.757Z,0.50
2017-09-19T06:26:28.275Z,1.40
2017-09-19T06:28:55.770Z,2.00
2017-09-19T06:31:23.297Z,1.80
2017-09-19T06:33:50.809Z,1.73
2017-09-19T06:36:18.305Z,1.07
2017-09-19T06:38:45.924Z,0.70
2017-09-19T06:41:13.424Z,0.83
2017-09-19T06:43:41.685Z,0.73
2017-09-19T06:46:09.198Z,0.53
2017-09-19T06:48:36.686Z,0.40
2017-09-19T06:51:04.192Z,0.60
2017-09-19T06:53:31.701Z,0.50
2017-09-19T06:55:59.225Z,0.47
2017-09-19T06:58:26.717Z,0.60
2017-09-19T07:00:54.325Z,0.60
2017-09-19T07:03:21.836Z,0.70
2017-09-19T07:05:49.345Z,0.60
2017-09-19T07:08:16.870Z,0.57
2017-09-19T07:10:45.137Z,0.60
2017-09-19T07:13:12.638Z,0.53
2017-09-19T07:15:40.176Z,0.67
2017-09-19T07:18:08.470Z,0.60
2017-09-19T07:20:35.968Z,0.57
2017-09-19T07:23:03.500Z,0.43
2017-09-19T07:25:31.009Z,0.80
2017-09-19T07:27:59.275Z,0.80
2017-09-19T07:30:26.785Z,0.80
2017-09-19T07:32:54.298Z,0.90
2017-09-19T07:35:22.588Z,0.90
2017-09-19T07:37:50.084Z,0.80
2017-09-19T07:40:18.541Z,0.80
2017-09-19T07:42:46.433Z,0.70
2017-09-19T07:45:14.693Z,0.90
2017-09-19T07:47:42.284Z,0.80
2017-09-19T07:50:09.784Z,0.60
2017-09-19T07:52:37.393Z,0.50
2017-09-19T07:55:04.980Z,0.60
2017-09-19T07:57:33.254Z,0.70
2017-09-19T08:00:01.568Z,0.50
2017-09-19T08:02:29.065Z,0.70
2017-09-19T08:04:56.685Z,0.70
2017-09-19T08:07:24.184Z,0.60
2017-09-19T08:09:51.673Z,0.50
2017-09-19T08:12:19.201Z,0.97
2017-09-19T08:14:46.717Z,0.77
2017-09-19T08:17:14.317Z,0.67
2017-09-19T08:19:41.832Z,0.60
2017-09-19T08:22:09.329Z,0.87
2017-09-19T08:24:36.849Z,0.80
2017-09-19T08:27:04.576Z,0.57
2017-09-19T08:29:33.026Z,0.73
2017-09-19T08:32:00.843Z,0.77
2017-09-19T08:34:28.881Z,0.77
2017-09-19T08:36:57.157Z,0.70
2017-09-19T08:39:25.509Z,1.10
2017-09-19T08:41:53.022Z,0.53
2017-09-19T08:44:20.521Z,0.50
2017-09-19T08:46:48.392Z,0.50
2017-09-19T08:49:16.254Z,0.60
2017-09-19T08:51:43.897Z,0.57
2017-09-19T08:54:11.608Z,0.60
2017-09-19T08:56:39.113Z,0.90
2017-09-19T08:59:06.605Z,0.70
2017-09-19T09:01:34.920Z,0.60
2017-09-19T09:04:02.785Z,0.70
2017-09-19T09:06:30.287Z,0.90
2017-09-19T09:08:57.799Z,0.57
2017-09-19T09:11:25.297Z,0.60
2017-09-19T09:13:52.824Z,0.70
2017-09-19T09:16:20.334Z,0.83
2017-09-19T09:18:48.605Z,0.90
2017-09-19T09:21:17.311Z,0.83
2017-09-19T09:23:44.894Z,0.70
2017-09-19T09:26:12.424Z,0.47
2017-09-19T09:28:39.921Z,0.57
2017-09-19T09:31:07.456Z,0.60
2017-09-19T09:33:35.188Z,0.60
2017-09-19T09:36:03.453Z,0.60
2017-09-19T09:38:31.830Z,0.40
2017-09-19T09:40:59.321Z,0.60
2017-09-19T09:43:27.102Z,0.60
2017-09-19T09:45:54.708Z,0.80
2017-09-19T09:48:23.028Z,0.60
2017-09-19T09:50:50.542Z,0.60
2017-09-19T09:53:18.889Z,0.50
2017-09-19T09:55:46.407Z,0.60
2017-09-19T09:58:14.133Z,0.50
2017-09-19T10:00:41.805Z,0.80
2017-09-19T10:03:10.087Z,0.60
2017-09-19T10:05:37.613Z,0.50
2017-09-19T10:08:05.110Z,0.63
2017-09-19T10:10:33.558Z,0.60
2017-09-19T10:13:01.154Z,0.73
2017-09-19T10:15:28.764Z,0.70
2017-09-19T10:17:56.448Z,0.60
2017-09-19T10:20:24.728Z,0.60
2017-09-19T10:22:52.993Z,0.50
2017-09-19T10:25:21.269Z,0.50
2017-09-19T10:27:48.781Z,0.57
2017-09-19T10:30:16.365Z,0.50
2017-09-19T10:32:44.653Z,0.57
2017-09-19T10:35:12.161Z,0.50
2017-09-19T10:37:39.737Z,0.40
2017-09-19T10:40:07.338Z,0.50
2017-09-19T10:42:35.617Z,0.60
2017-09-19T10:45:03.884Z,0.40
2017-09-19T10:47:32.161Z,0.50
2017-09-19T10:50:00.432Z,0.60
2017-09-19T10:52:28.699Z,0.50
2017-09-19T10:54:56.213Z,0.63
2017-09-19T10:57:23.710Z,0.50
2017-09-19T10:59:51.284Z,0.50
2017-09-19T11:02:19.540Z,0.50
2017-09-19T11:04:47.321Z,0.60
2017-09-19T11:07:15.598Z,0.60
2017-09-19T11:09:43.891Z,0.40
2017-09-19T11:12:11.497Z,0.60
2017-09-19T11:14:38.986Z,0.50
2017-09-19T11:17:08.173Z,0.40
2017-09-19T11:19:35.681Z,0.40
2017-09-19T11:22:03.177Z,0.50
2017-09-19T11:24:30.686Z,0.40
2017-09-19T11:26:58.186Z,0.40
2017-09-19T11:29:25.728Z,0.50
2017-09-19T11:31:53.220Z,0.50
2017-09-19T11:34:21.489Z,0.50
2017-09-19T11:36:48.996Z,0.50
2017-09-19T11:39:16.496Z,0.40
2017-09-19T11:41:44.130Z,0.40
2017-09-19T11:44:11.625Z,0.40
2017-09-19T11:46:39.896Z,0.40
2017-09-19T11:49:08.207Z,0.40
2017-09-19T11:51:35.708Z,0.40
2017-09-19T11:54:03.242Z,0.40
2017-09-19T11:56:30.736Z,0.40
2017-09-19T11:58:58.265Z,0.40
2017-09-19T12:01:25.847Z,0.40
2017-09-19T12:03:53.341Z,0.53
2017-09-19T12:06:20.881Z,0.50
2017-09-19T12:08:48.382Z,0.53
2017-09-19T12:11:15.875Z,0.50
2017-09-19T12:13:43.415Z,0.50
2017-09-19T12:16:10.912Z,0.50
2017-09-19T12:18:39.210Z,0.57
2017-09-19T12:21:06.705Z,0.60
2017-09-19T12:23:35.002Z,0.50
2017-09-19T12:26:03.317Z,0.40
2017-09-19T12:28:30.818Z,0.53
2017-09-19T12:30:58.781Z,0.40
2017-09-19T12:33:26.496Z,0.40
2017-09-19T12:35:54.376Z,0.43
2017-09-19T12:38:21.895Z,0.40
2017-09-19T12:40:50.200Z,0.40
2017-09-19T12:43:17.702Z,0.50
2017-09-19T12:45:46.189Z,0.40
2017-09-19T12:48:13.788Z,0.40
2017-09-19T12:50:41.284Z,0.40
2017-09-19T12:53:10.356Z,0.40
2017-09-19T12:55:38.085Z,0.40
2017-09-19T12:58:05.636Z,0.40
2017-09-19T13:00:33.187Z,0.33
2017-09-19T13:03:01.462Z,0.40
2017-09-19T13:05:29.759Z,0.40
2017-09-19T13:07:57.260Z,0.40
2017-09-19T13:10:26.271Z,0.30
2017-09-19T13:12:53.859Z,0.50
2017-09-19T13:15:22.210Z,0.40
2017-09-19T13:17:49.736Z,0.40
2017-09-19T13:20:17.259Z,0.37
2017-09-19T13:22:47.438Z,0.60
2017-09-19T13:25:14.981Z,0.40
2017-09-19T13:27:42.477Z,0.40
2017-09-19T13:30:10.748Z,0.50
2017-09-19T13:32:50.997Z,0.40
2017-09-19T13:35:18.490Z,0.50
2017-09-19T13:37:46.031Z,0.40
2017-09-19T13:40:14.288Z,0.40
2017-09-19T13:42:42.554Z,0.50
2017-09-19T13:45:11.562Z,0.90
2017-09-19T13:47:39.870Z,0.60
2017-09-19T13:50:08.640Z,0.53
2017-09-19T13:52:36.136Z,0.50
2017-09-19T13:55:03.671Z,0.60
2017-09-19T13:57:31.229Z,0.40
2017-09-19T14:00:01.792Z,0.50
2017-09-19T14:02:31.034Z,0.70
2017-09-19T14:04:58.521Z,0.50
2017-09-19T14:07:26.974Z,0.50
2017-09-19T14:09:54.521Z,0.50
2017-09-19T14:12:22.460Z,0.50
2017-09-19T14:14:49.956Z,0.57
2017-09-19T14:17:19.553Z,0.40
2017-09-19T14:19:47.861Z,0.50
2017-09-19T14:22:15.485Z,0.40
2017-09-19T14:24:43.752Z,0.50
2017-09-19T14:27:12.263Z,0.70
2017-09-19T14:29:39.761Z,0.50
2017-09-19T14:32:07.320Z,0.70
2017-09-19T14:34:34.867Z,0.40
2017-09-19T14:37:02.364Z,0.40
2017-09-19T14:39:29.864Z,0.43
2017-09-19T14:41:57.397Z,0.40
2017-09-19T14:44:24.897Z,0.50
2017-09-19T14:46:52.436Z,0.40
2017-09-19T14:49:19.964Z,0.40
2017-09-19T14:51:47.495Z,0.40
2017-09-19T14:54:15.810Z,0.40
2017-09-19T14:56:43.342Z,0.50
2017-09-19T14:59:11.609Z,0.50
2017-09-19T15:01:39.932Z,0.50
2017-09-19T15:04:07.425Z,0.60
2017-09-19T15:06:34.957Z,0.50
2017-09-19T15:09:02.466Z,0.47
2017-09-19T15:11:30.730Z,0.60
2017-09-19T15:13:59.027Z,0.60
2017-09-19T15:16:26.546Z,0.60
2017-09-19T15:18:54.127Z,0.40
2017-09-19T15:21:22.391Z,0.40
2017-09-19T15:23:50.681Z,0.50
2017-09-19T15:26:18.979Z,1.00
2017-09-19T15:28:46.513Z,0.80
2017-09-19T15:31:14.855Z,3.97
2017-09-19T15:33:42.363Z,2.47
2017-09-19T15:36:09.861Z,1.97
2017-09-19T15:38:37.401Z,1.10
2017-09-19T15:41:04.896Z,1.10
2017-09-19T15:43:32.392Z,1.53
2017-09-19T15:45:59.914Z,1.70
2017-09-19T15:48:27.416Z,0.90
2017-09-19T15:50:54.967Z,0.70
2017-09-19T15:53:22.464Z,0.90
2017-09-19T15:55:49.961Z,0.80
2017-09-19T15:58:17.496Z,0.60
2017-09-19T16:00:45.756Z,0.80
2017-09-19T16:03:13.255Z,0.70
2017-09-19T16:05:40.797Z,0.70
2017-09-19T16:08:09.101Z,0.50
2017-09-19T16:10:36.600Z,0.60
2017-09-19T16:13:04.105Z,0.40
2017-09-19T16:15:31.633Z,0.60
2017-09-19T16:17:59.132Z,0.60
2017-09-19T16:20:26.657Z,0.40
2017-09-19T16:22:54.926Z,0.50
2017-09-19T16:25:23.197Z,0.53
2017-09-19T16:27:51.505Z,0.50
2017-09-19T16:30:19.070Z,0.60
2017-09-19T16:32:46.568Z,0.50
2017-09-19T16:35:14.098Z,0.40
2017-09-19T16:37:41.623Z,0.43
2017-09-19T16:40:09.118Z,0.40
2017-09-19T16:42:36.661Z,0.40
2017-09-19T16:45:04.157Z,0.70
2017-09-19T16:47:31.641Z,0.40
2017-09-19T16:49:59.950Z,0.50
2017-09-19T16:52:27.459Z,0.40
2017-09-19T16:54:55.109Z,0.60
2017-09-19T16:57:22.641Z,0.50
2017-09-19T16:59:50.137Z,0.43
2017-09-19T17:02:18.445Z,0.50
2017-09-19T17:04:45.951Z,0.50
2017-09-19T17:07:13.445Z,0.50
2017-09-19T17:09:40.997Z,0.60
2017-09-19T17:12:09.259Z,0.40
2017-09-19T17:14:37.539Z,0.40
2017-09-19T17:17:05.843Z,0.50
2017-09-19T17:19:33.342Z,0.40
2017-09-19T17:22:00.869Z,0.50
2017-09-19T17:24:28.434Z,0.60
2017-09-19T17:26:55.970Z,0.40
2017-09-19T17:29:23.497Z,0.53
2017-09-19T17:31:51.768Z,0.70
2017-09-19T17:34:20.087Z,0.50
2017-09-19T17:36:47.591Z,0.60
2017-09-19T17:39:15.089Z,0.60
2017-09-19T17:41:42.643Z,0.50
2017-09-19T17:44:10.141Z,0.60
2017-09-19T17:46:37.678Z,0.57
2017-09-19T17:49:05.185Z,0.50
2017-09-19T17:51:33.484Z,0.70
2017-09-19T17:54:00.985Z,0.73
2017-09-19T17:56:28.529Z,0.93
2017-09-19T17:58:56.797Z,0.70
2017-09-19T18:01:24.312Z,0.90
2017-09-19T18:03:52.615Z,0.90
2017-09-19T18:06:20.128Z,0.80
2017-09-19T18:08:47.665Z,0.80
2017-09-19T18:11:15.204Z,1.10
2017-09-19T18:13:42.738Z,0.83
2017-09-19T18:16:10.273Z,0.90
2017-09-19T18:18:38.534Z,0.80
2017-09-19T18:21:06.047Z,1.33
2017-09-19T18:23:33.582Z,0.87
2017-09-19T18:26:01.085Z,1.13
2017-09-19T18:28:28.640Z,1.10
2017-09-19T18:30:56.138Z,0.90
2017-09-19T18:33:24.424Z,1.00
2017-09-19T18:35:51.974Z,1.00
2017-09-19T18:38:19.477Z,1.23
2017-09-19T18:40:46.980Z,1.00
2017-09-19T18:43:15.281Z,1.37
2017-09-19T18:45:42.791Z,1.03
2017-09-19T18:48:10.321Z,1.07
2017-09-19T18:50:37.825Z,1.50
2017-09-19T18:53:10.480Z,1.40
2017-09-19T18:55:38.764Z,1.17
2017-09-19T18:58:06.256Z,1.50
2017-09-19T19:00:33.781Z,1.40
2017-09-19T19:03:02.064Z,1.30
2017-09-19T19:05:30.361Z,1.50
2017-09-19T19:07:57.869Z,1.50
2017-09-19T19:10:25.410Z,1.30
2017-09-19T19:12:52.987Z,1.97
2017-09-19T19:15:20.480Z,1.57
2017-09-19T19:17:48.779Z,1.40
2017-09-19T19:20:16.284Z,1.77
2017-09-19T19:22:43.773Z,1.50
2017-09-19T19:25:11.306Z,1.27
2017-09-19T19:27:39.584Z,0.90
2017-09-19T19:30:07.888Z,0.93
2017-09-19T19:32:35.392Z,1.23
2017-09-19T19:35:02.925Z,1.30
2017-09-19T19:37:30.432Z,1.40
2017-09-19T19:39:58.706Z,1.20
2017-09-19T19:42:27.022Z,1.67
2017-09-19T19:44:54.507Z,1.47
2017-09-19T19:47:21.998Z,1.10
2017-09-19T19:49:50.293Z,1.50
2017-09-19T19:52:17.849Z,1.60
2017-09-19T19:54:45.361Z,1.30
2017-09-19T19:57:12.860Z,1.50
2017-09-19T19:59:40.405Z,1.53
2017-09-19T20:02:08.681Z,1.30
2017-09-19T20:04:36.979Z,1.67
2017-09-19T20:07:04.493Z,1.03
2017-09-19T20:09:32.035Z,1.10
2017-09-19T20:11:59.583Z,1.30
2017-09-19T20:14:27.084Z,1.23
2017-09-19T20:16:55.351Z,1.10
2017-09-19T20:19:39.056Z,1.30
2017-09-19T20:22:08.022Z,1.37
2017-09-19T20:24:35.589Z,0.90
2017-09-19T20:27:04.466Z,0.97
2017-09-19T20:29:31.980Z,1.50
2017-09-19T20:31:59.473Z,1.90
2017-09-19T20:34:27.004Z,1.90
2017-09-19T20:36:55.275Z,1.70
2017-09-19T20:39:23.549Z,1.50
2017-09-19T20:41:51.859Z,1.60
2017-09-19T20:44:19.358Z,1.37
2017-09-19T20:46:47.594Z,1.47
2017-09-19T20:49:15.092Z,1.77
2017-09-19T20:51:42.594Z,2.00
2017-09-19T20:54:10.097Z,2.27
2017-09-19T20:56:41.452Z,2.03
2017-09-19T20:59:09.964Z,2.03
2017-09-19T21:01:38.229Z,2.10
2017-09-19T21:04:12.413Z,1.90
2017-09-19T21:06:45.630Z,2.20
2017-09-19T21:09:19.733Z,1.60
2017-09-19T21:11:52.864Z,1.50
2017-09-19T21:14:26.206Z,1.67
2017-09-19T21:16:59.320Z,1.93
2017-09-19T21:19:27.277Z,1.87
2017-09-19T21:21:55.541Z,3.20
2017-09-19T21:24:23.080Z,4.37
2017-09-19T21:26:50.597Z,3.40
2017-09-19T21:29:18.123Z,2.97
2017-09-19T21:31:46.624Z,2.53
2017-09-19T21:34:14.122Z,1.90
2017-09-19T21:36:41.622Z,1.90
2017-09-19T21:39:11.012Z,1.63
2017-09-19T21:41:38.499Z,1.80
2017-09-19T21:44:05.992Z,1.67
2017-09-19T21:46:33.874Z,1.80
2017-09-19T21:49:01.374Z,2.33
2017-09-19T21:51:28.868Z,2.00
2017-09-19T21:53:56.386Z,2.47
2017-09-19T21:56:23.888Z,2.30
2017-09-19T21:58:51.700Z,2.87
2017-09-19T22:01:19.964Z,2.70
2017-09-19T22:03:48.220Z,2.70
2017-09-19T22:06:15.724Z,2.50
2017-09-19T22:08:43.216Z,2.27
2017-09-19T22:11:10.733Z,4.30
2017-09-19T22:13:38.228Z,2.87
2017-09-19T22:16:05.745Z,2.33
2017-09-19T22:18:33.467Z,2.00
2017-09-19T22:21:00.968Z,2.73
2017-09-19T22:23:28.459Z,2.40
2017-09-19T22:25:56.006Z,2.53
2017-09-19T22:28:23.506Z,2.50
2017-09-19T22:30:50.998Z,2.17
2017-09-19T22:33:18.520Z,2.23
2017-09-19T22:35:46.782Z,7.17
2017-09-19T22:38:14.299Z,4.70
2017-09-19T22:40:41.787Z,4.83
2017-09-19T22:43:09.308Z,11.37
2017-09-19T22:45:36.799Z,6.27
2017-09-19T22:48:04.318Z,5.33
2017-09-19T22:50:31.830Z,3.93
2017-09-19T22:52:59.449Z,3.23
2017-09-19T22:55:26.941Z,3.03
2017-09-19T22:57:54.465Z,3.37
2017-09-19T23:00:22.070Z,2.53
2017-09-19T23:02:50.333Z,2.53
2017-09-19T23:05:17.835Z,10.13
2017-09-19T23:07:45.359Z,5.87
2017-09-19T23:10:13.636Z,4.53
2017-09-19T23:12:41.900Z,6.17
2017-09-19T23:15:09.512Z,6.00
2017-09-19T23:17:37.071Z,5.07
2017-09-19T23:20:04.575Z,3.27
2017-09-19T23:22:32.086Z,5.40
2017-09-19T23:24:59.586Z,4.77
2017-09-19T23:27:27.074Z,5.40
2017-09-19T23:29:54.685Z,3.90
2017-09-19T23:32:22.191Z,2.93
2017-09-19T23:34:49.687Z,1.97
2017-09-19T23:37:17.205Z,2.60
2017-09-19T23:39:44.705Z,3.27
2017-09-19T23:42:12.970Z,2.20
2017-09-19T23:44:41.246Z,2.33
2017-09-19T23:47:08.736Z,1.93
2017-09-19T23:49:36.240Z,2.03
2017-09-19T23:52:03.732Z,1.50
2017-09-19T23:54:31.252Z,1.80
2017-09-19T23:56:58.741Z,2.27
2017-09-19T23:59:26.265Z,1.90
